sensor_id;sensor_type;location;lat;lon;timestamp;P1;durP1;ratioP1;P2;durP2;ratioP2
54368;SDS011;40266;52.434;17.056;2023-09-19T00:01:13;4.60;;;3.00;;
54368;SDS011;40266;52.434;17.056;2023-09-19T00:03:57;9.50;;;3.70;;
54368;SDS011;40266;52.434;17.056;2023-09-19T00:06:40;10.30;;;3.80;;
54368;SDS011;40266;52.434;17.056;2023-09-19T00:09:25;6.20;;;3.70;;
54368;SDS011;40266;52.434;17.056;2023-09-19T00:12:11;10.30;;;3.70;;
54368;SDS011;40266;52.434;17.056;2023-09-19T00:14:56;6.60;;;3.60;;
54368;SDS011;40266;52.434;17.056;2023-09-19T00:17:39;7.10;;;3.50;;
54368;SDS011;40266;52.434;17.056;2023-09-19T00:20:23;7.30;;;3.70;;
54368;SDS011;40266;52.434;17.056;2023-09-19T00:23:07;8.00;;;4.20;;
54368;SDS011;40266;52.434;17.056;2023-09-19T00:25:53;6.30;;;3.90;;
54368;SDS011;40266;52.434;17.056;2023-09-19T00:28:39;8.80;;;3.80;;
54368;SDS011;40266;52.434;17.056;2023-09-19T00:31:22;9.20;;;3.80;;
54368;SDS011;40266;52.434;17.056;2023-09-19T00:34:06;7.90;;;4.60;;
54368;SDS011;40266;52.434;17.056;2023-09-19T00:36:51;7.80;;;4.50;;
54368;SDS011;40266;52.434;17.056;2023-09-19T00:39:36;8.70;;;4.20;;
54368;SDS011;40266;52.434;17.056;2023-09-19T00:42:19;11.10;;;4.60;;
54368;SDS011;40266;52.434;17.056;2023-09-19T00:45:04;8.10;;;3.60;;
54368;SDS011;40266;52.434;17.056;2023-09-19T00:47:49;8.10;;;3.60;;
54368;SDS011;40266;52.434;17.056;2023-09-19T00:50:34;6.40;;;3.80;;
54368;SDS011;40266;52.434;17.056;2023-09-19T00:53:20;11.00;;;3.60;;
54368;SDS011;40266;52.434;17.056;2023-09-19T00:56:05;11.10;;;3.90;;
54368;SDS011;40266;52.434;17.056;2023-09-19T00:58:49;9.00;;;3.70;;
54368;SDS011;40266;52.434;17.056;2023-09-19T01:04:31;6.30;;;3.90;;
54368;SDS011;40266;52.434;17.056;2023-09-19T01:07:14;8.80;;;3.70;;
54368;SDS011;40266;52.434;17.056;2023-09-19T01:09:58;8.00;;;3.90;;
54368;SDS011;40266;52.434;17.056;2023-09-19T01:12:59;9.90;;;3.60;;
54368;SDS011;40266;52.434;17.056;2023-09-19T01:15:52;6.50;;;3.60;;
54368;SDS011;40266;52.434;17.056;2023-09-19T01:28:06;7.60;;;3.80;;
54368;SDS011;40266;52.434;17.056;2023-09-19T01:30:57;9.10;;;3.60;;
54368;SDS011;40266;52.434;17.056;2023-09-19T01:33:55;10.30;;;4.10;;
54368;SDS011;40266;52.434;17.056;2023-09-19T01:36:44;8.50;;;3.80;;
54368;SDS011;40266;52.434;17.056;2023-09-19T01:39:28;9.40;;;3.30;;
54368;SDS011;40266;52.434;17.056;2023-09-19T01:45:13;10.40;;;4.30;;
54368;SDS011;40266;52.434;17.056;2023-09-19T01:48:23;6.10;;;3.90;;
54368;SDS011;40266;52.434;17.056;2023-09-19T01:51:27;8.40;;;4.60;;
54368;SDS011;40266;52.434;17.056;2023-09-19T01:54:18;11.70;;;5.10;;
54368;SDS011;40266;52.434;17.056;2023-09-19T02:02:55;6.30;;;4.50;;
54368;SDS011;40266;52.434;17.056;2023-09-19T02:05:41;10.90;;;5.60;;
54368;SDS011;40266;52.434;17.056;2023-09-19T02:08:31;10.20;;;5.90;;
54368;SDS011;40266;52.434;17.056;2023-09-19T02:11:16;10.10;;;4.90;;
54368;SDS011;40266;52.434;17.056;2023-09-19T02:13:59;8.30;;;4.60;;
54368;SDS011;40266;52.434;17.056;2023-09-19T02:16:42;10.70;;;4.70;;
54368;SDS011;40266;52.434;17.056;2023-09-19T02:19:25;9.50;;;4.50;;
54368;SDS011;40266;52.434;17.056;2023-09-19T02:22:08;7.20;;;4.50;;
54368;SDS011;40266;52.434;17.056;2023-09-19T02:24:53;9.90;;;4.40;;
54368;SDS011;40266;52.434;17.056;2023-09-19T02:27:36;8.40;;;4.40;;
54368;SDS011;40266;52.434;17.056;2023-09-19T02:30:19;7.40;;;4.30;;
54368;SDS011;40266;52.434;17.056;2023-09-19T02:33:07;6.70;;;3.90;;
54368;SDS011;40266;52.434;17.056;2023-09-19T02:35:54;8.40;;;4.10;;
54368;SDS011;40266;52.434;17.056;2023-09-19T02:38:40;7.00;;;4.10;;
54368;SDS011;40266;52.434;17.056;2023-09-19T02:41:23;9.00;;;3.90;;
54368;SDS011;40266;52.434;17.056;2023-09-19T02:44:07;8.00;;;4.00;;
54368;SDS011;40266;52.434;17.056;2023-09-19T02:46:50;6.50;;;3.60;;
54368;SDS011;40266;52.434;17.056;2023-09-19T02:49:33;9.70;;;4.40;;
54368;SDS011;40266;52.434;17.056;2023-09-19T02:52:17;6.70;;;3.90;;
54368;SDS011;40266;52.434;17.056;2023-09-19T02:55:00;6.00;;;3.70;;
54368;SDS011;40266;52.434;17.056;2023-09-19T02:57:47;7.00;;;4.20;;
54368;SDS011;40266;52.434;17.056;2023-09-19T03:00:31;6.70;;;3.90;;
54368;SDS011;40266;52.434;17.056;2023-09-19T03:03:17;5.80;;;3.70;;
54368;SDS011;40266;52.434;17.056;2023-09-19T03:06:00;6.80;;;4.10;;
54368;SDS011;40266;52.434;17.056;2023-09-19T03:08:46;9.00;;;3.80;;
54368;SDS011;40266;52.434;17.056;2023-09-19T03:11:31;8.50;;;4.20;;
54368;SDS011;40266;52.434;17.056;2023-09-19T03:14:14;9.20;;;3.90;;
54368;SDS011;40266;52.434;17.056;2023-09-19T03:16:58;12.70;;;4.20;;
54368;SDS011;40266;52.434;17.056;2023-09-19T03:19:43;9.10;;;4.20;;
54368;SDS011;40266;52.434;17.056;2023-09-19T03:22:26;6.80;;;4.00;;
54368;SDS011;40266;52.434;17.056;2023-09-19T03:25:10;8.50;;;4.10;;
54368;SDS011;40266;52.434;17.056;2023-09-19T03:27:56;9.00;;;4.00;;
54368;SDS011;40266;52.434;17.056;2023-09-19T03:30:41;9.50;;;3.50;;
54368;SDS011;40266;52.434;17.056;2023-09-19T03:33:24;6.80;;;3.60;;
54368;SDS011;40266;52.434;17.056;2023-09-19T03:36:07;6.00;;;3.30;;
54368;SDS011;40266;52.434;17.056;2023-09-19T03:38:50;7.10;;;3.50;;
54368;SDS011;40266;52.434;17.056;2023-09-19T03:41:33;7.80;;;3.70;;
54368;SDS011;40266;52.434;17.056;2023-09-19T03:44:19;6.90;;;3.70;;
54368;SDS011;40266;52.434;17.056;2023-09-19T03:47:02;6.60;;;3.20;;
54368;SDS011;40266;52.434;17.056;2023-09-19T03:49:47;8.40;;;3.90;;
54368;SDS011;40266;52.434;17.056;2023-09-19T03:52:31;5.70;;;3.40;;
54368;SDS011;40266;52.434;17.056;2023-09-19T03:55:13;8.60;;;3.90;;
54368;SDS011;40266;52.434;17.056;2023-09-19T03:57:56;6.00;;;3.10;;
54368;SDS011;40266;52.434;17.056;2023-09-19T04:00:39;7.70;;;3.60;;
54368;SDS011;40266;52.434;17.056;2023-09-19T04:03:22;6.40;;;3.50;;
54368;SDS011;40266;52.434;17.056;2023-09-19T04:06:05;6.00;;;3.50;;
54368;SDS011;40266;52.434;17.056;2023-09-19T04:08:48;8.40;;;3.60;;
54368;SDS011;40266;52.434;17.056;2023-09-19T04:11:31;8.20;;;4.20;;
54368;SDS011;40266;52.434;17.056;2023-09-19T04:14:16;8.30;;;4.30;;
54368;SDS011;40266;52.434;17.056;2023-09-19T04:16:59;11.20;;;6.00;;
54368;SDS011;40266;52.434;17.056;2023-09-19T04:19:43;8.00;;;5.10;;
54368;SDS011;40266;52.434;17.056;2023-09-19T04:22:28;6.70;;;5.00;;
54368;SDS011;40266;52.434;17.056;2023-09-19T04:25:11;13.30;;;6.10;;
54368;SDS011;40266;52.434;17.056;2023-09-19T04:27:54;10.90;;;7.00;;
54368;SDS011;40266;52.434;17.056;2023-09-19T04:30:37;11.20;;;5.90;;
54368;SDS011;40266;52.434;17.056;2023-09-19T04:33:23;10.90;;;6.00;;
54368;SDS011;40266;52.434;17.056;2023-09-19T04:36:05;12.80;;;5.40;;
54368;SDS011;40266;52.434;17.056;2023-09-19T04:39:10;10.50;;;5.90;;
54368;SDS011;40266;52.434;17.056;2023-09-19T04:41:55;12.90;;;6.10;;
54368;SDS011;40266;52.434;17.056;2023-09-19T04:44:39;9.50;;;6.30;;
54368;SDS011;40266;52.434;17.056;2023-09-19T04:47:22;10.90;;;5.90;;
54368;SDS011;40266;52.434;17.056;2023-09-19T04:50:06;12.60;;;5.70;;
54368;SDS011;40266;52.434;17.056;2023-09-19T04:52:50;15.00;;;5.70;;
54368;SDS011;40266;52.434;17.056;2023-09-19T04:55:33;11.60;;;5.70;;
54368;SDS011;40266;52.434;17.056;2023-09-19T04:58:16;15.90;;;5.70;;
54368;SDS011;40266;52.434;17.056;2023-09-19T05:01:00;11.70;;;5.80;;
54368;SDS011;40266;52.434;17.056;2023-09-19T05:03:46;14.60;;;5.60;;
54368;SDS011;40266;52.434;17.056;2023-09-19T05:06:34;8.20;;;5.50;;
54368;SDS011;40266;52.434;17.056;2023-09-19T05:09:18;16.50;;;6.40;;
54368;SDS011;40266;52.434;17.056;2023-09-19T05:12:02;12.40;;;5.40;;
54368;SDS011;40266;52.434;17.056;2023-09-19T05:14:46;10.20;;;5.60;;
54368;SDS011;40266;52.434;17.056;2023-09-19T05:17:29;11.60;;;5.30;;
54368;SDS011;40266;52.434;17.056;2023-09-19T05:20:12;10.80;;;5.30;;
54368;SDS011;40266;52.434;17.056;2023-09-19T05:23:07;11.60;;;5.30;;
54368;SDS011;40266;52.434;17.056;2023-09-19T05:25:54;11.80;;;5.60;;
54368;SDS011;40266;52.434;17.056;2023-09-19T05:28:39;13.90;;;5.30;;
54368;SDS011;40266;52.434;17.056;2023-09-19T05:31:22;8.60;;;5.70;;
54368;SDS011;40266;52.434;17.056;2023-09-19T05:34:05;8.90;;;5.80;;
54368;SDS011;40266;52.434;17.056;2023-09-19T05:36:49;9.60;;;5.00;;
54368;SDS011;40266;52.434;17.056;2023-09-19T05:39:31;14.00;;;5.90;;
54368;SDS011;40266;52.434;17.056;2023-09-19T05:42:14;8.20;;;4.60;;
54368;SDS011;40266;52.434;17.056;2023-09-19T05:44:57;7.80;;;4.80;;
54368;SDS011;40266;52.434;17.056;2023-09-19T05:47:41;11.90;;;4.90;;
54368;SDS011;40266;52.434;17.056;2023-09-19T05:50:25;10.40;;;4.60;;
54368;SDS011;40266;52.434;17.056;2023-09-19T05:53:08;10.20;;;4.60;;
54368;SDS011;40266;52.434;17.056;2023-09-19T05:55:55;11.00;;;4.80;;
54368;SDS011;40266;52.434;17.056;2023-09-19T05:58:38;8.50;;;4.40;;
54368;SDS011;40266;52.434;17.056;2023-09-19T06:01:21;11.50;;;4.80;;
54368;SDS011;40266;52.434;17.056;2023-09-19T06:04:05;10.00;;;4.00;;
54368;SDS011;40266;52.434;17.056;2023-09-19T06:06:48;6.10;;;4.30;;
54368;SDS011;40266;52.434;17.056;2023-09-19T06:09:31;9.30;;;3.90;;
54368;SDS011;40266;52.434;17.056;2023-09-19T06:12:15;9.80;;;4.70;;
54368;SDS011;40266;52.434;17.056;2023-09-19T06:14:59;8.00;;;4.20;;
54368;SDS011;40266;52.434;17.056;2023-09-19T06:17:42;6.20;;;4.00;;
54368;SDS011;40266;52.434;17.056;2023-09-19T06:20:29;12.70;;;5.00;;
54368;SDS011;40266;52.434;17.056;2023-09-19T06:23:12;10.10;;;4.60;;
54368;SDS011;40266;52.434;17.056;2023-09-19T06:25:55;8.30;;;4.20;;
54368;SDS011;40266;52.434;17.056;2023-09-19T06:28:39;8.90;;;4.40;;
54368;SDS011;40266;52.434;17.056;2023-09-19T06:31:22;11.90;;;5.50;;
54368;SDS011;40266;52.434;17.056;2023-09-19T06:34:09;8.30;;;4.00;;
54368;SDS011;40266;52.434;17.056;2023-09-19T06:36:52;10.80;;;4.30;;
54368;SDS011;40266;52.434;17.056;2023-09-19T06:39:35;11.60;;;4.40;;
54368;SDS011;40266;52.434;17.056;2023-09-19T06:42:18;7.80;;;4.00;;
54368;SDS011;40266;52.434;17.056;2023-09-19T06:45:04;7.70;;;4.40;;
54368;SDS011;40266;52.434;17.056;2023-09-19T06:47:49;11.10;;;5.00;;
54368;SDS011;40266;52.434;17.056;2023-09-19T06:50:33;10.40;;;4.50;;
54368;SDS011;40266;52.434;17.056;2023-09-19T06:53:16;7.70;;;4.30;;
54368;SDS011;40266;52.434;17.056;2023-09-19T06:56:00;8.70;;;4.50;;
54368;SDS011;40266;52.434;17.056;2023-09-19T06:58:43;11.60;;;5.00;;
54368;SDS011;40266;52.434;17.056;2023-09-19T07:01:26;9.40;;;4.40;;
54368;SDS011;40266;52.434;17.056;2023-09-19T07:04:09;8.70;;;4.20;;
54368;SDS011;40266;52.434;17.056;2023-09-19T07:06:52;13.40;;;4.40;;
54368;SDS011;40266;52.434;17.056;2023-09-19T07:09:35;8.30;;;3.90;;
54368;SDS011;40266;52.434;17.056;2023-09-19T07:12:19;10.20;;;4.10;;
54368;SDS011;40266;52.434;17.056;2023-09-19T07:15:02;8.90;;;4.10;;
54368;SDS011;40266;52.434;17.056;2023-09-19T07:17:46;7.70;;;4.20;;
54368;SDS011;40266;52.434;17.056;2023-09-19T07:20:30;9.60;;;4.30;;
54368;SDS011;40266;52.434;17.056;2023-09-19T07:23:15;7.80;;;3.60;;
54368;SDS011;40266;52.434;17.056;2023-09-19T07:26:00;6.80;;;4.10;;
54368;SDS011;40266;52.434;17.056;2023-09-19T07:28:44;7.80;;;4.20;;
54368;SDS011;40266;52.434;17.056;2023-09-19T07:31:27;8.50;;;4.00;;
54368;SDS011;40266;52.434;17.056;2023-09-19T07:34:11;9.60;;;4.10;;
54368;SDS011;40266;52.434;17.056;2023-09-19T07:36:54;10.10;;;4.20;;
54368;SDS011;40266;52.434;17.056;2023-09-19T07:39:37;10.40;;;4.10;;
54368;SDS011;40266;52.434;17.056;2023-09-19T07:42:19;9.10;;;3.80;;
54368;SDS011;40266;52.434;17.056;2023-09-19T07:45:02;8.00;;;3.20;;
54368;SDS011;40266;52.434;17.056;2023-09-19T07:47:46;7.30;;;3.40;;
54368;SDS011;40266;52.434;17.056;2023-09-19T07:50:30;7.60;;;3.00;;
54368;SDS011;40266;52.434;17.056;2023-09-19T07:53:13;6.00;;;2.90;;
54368;SDS011;40266;52.434;17.056;2023-09-19T07:56:03;7.90;;;3.60;;
54368;SDS011;40266;52.434;17.056;2023-09-19T07:58:47;8.60;;;3.50;;
54368;SDS011;40266;52.434;17.056;2023-09-19T08:01:30;7.30;;;3.30;;
54368;SDS011;40266;52.434;17.056;2023-09-19T08:04:14;9.10;;;3.40;;
54368;SDS011;40266;52.434;17.056;2023-09-19T08:06:57;7.00;;;3.30;;
54368;SDS011;40266;52.434;17.056;2023-09-19T08:09:43;6.40;;;2.80;;
54368;SDS011;40266;52.434;17.056;2023-09-19T08:12:29;7.80;;;3.40;;
54368;SDS011;40266;52.434;17.056;2023-09-19T08:15:13;7.90;;;3.10;;
54368;SDS011;40266;52.434;17.056;2023-09-19T08:17:56;7.20;;;2.50;;
54368;SDS011;40266;52.434;17.056;2023-09-19T08:20:39;9.70;;;3.00;;
54368;SDS011;40266;52.434;17.056;2023-09-19T08:23:24;5.60;;;2.60;;
54368;SDS011;40266;52.434;17.056;2023-09-19T08:26:08;7.20;;;2.70;;
54368;SDS011;40266;52.434;17.056;2023-09-19T08:28:51;5.50;;;2.70;;
54368;SDS011;40266;52.434;17.056;2023-09-19T08:31:34;5.80;;;2.40;;
54368;SDS011;40266;52.434;17.056;2023-09-19T08:34:17;9.50;;;2.80;;
54368;SDS011;40266;52.434;17.056;2023-09-19T08:37:00;9.40;;;2.80;;
54368;SDS011;40266;52.434;17.056;2023-09-19T08:39:43;8.40;;;2.40;;
54368;SDS011;40266;52.434;17.056;2023-09-19T08:42:27;11.10;;;3.10;;
54368;SDS011;40266;52.434;17.056;2023-09-19T08:45:10;4.20;;;2.10;;
54368;SDS011;40266;52.434;17.056;2023-09-19T08:51:03;5.10;;;2.30;;
54368;SDS011;40266;52.434;17.056;2023-09-19T08:54:07;10.60;;;2.90;;
54368;SDS011;40266;52.434;17.056;2023-09-19T08:56:53;4.50;;;2.50;;
54368;SDS011;40266;52.434;17.056;2023-09-19T08:59:37;6.30;;;2.60;;
54368;SDS011;40266;52.434;17.056;2023-09-19T09:02:22;5.10;;;2.70;;
54368;SDS011;40266;52.434;17.056;2023-09-19T09:05:09;6.40;;;2.30;;
54368;SDS011;40266;52.434;17.056;2023-09-19T09:07:53;5.20;;;3.20;;
54368;SDS011;40266;52.434;17.056;2023-09-19T09:10:39;11.10;;;2.50;;
54368;SDS011;40266;52.434;17.056;2023-09-19T09:13:23;9.20;;;2.20;;
54368;SDS011;40266;52.434;17.056;2023-09-19T09:16:08;8.80;;;2.50;;
54368;SDS011;40266;52.434;17.056;2023-09-19T09:18:53;9.20;;;2.20;;
54368;SDS011;40266;52.434;17.056;2023-09-19T09:21:37;5.50;;;2.30;;
54368;SDS011;40266;52.434;17.056;2023-09-19T09:24:30;6.50;;;2.10;;
54368;SDS011;40266;52.434;17.056;2023-09-19T09:27:17;3.90;;;1.80;;
54368;SDS011;40266;52.434;17.056;2023-09-19T09:30:00;6.70;;;2.80;;
54368;SDS011;40266;52.434;17.056;2023-09-19T09:32:43;4.90;;;2.20;;
54368;SDS011;40266;52.434;17.056;2023-09-19T09:35:53;7.80;;;2.60;;
54368;SDS011;40266;52.434;17.056;2023-09-19T09:38:43;4.50;;;2.40;;
54368;SDS011;40266;52.434;17.056;2023-09-19T09:41:41;7.90;;;2.50;;
54368;SDS011;40266;52.434;17.056;2023-09-19T09:44:25;9.30;;;2.70;;
54368;SDS011;40266;52.434;17.056;2023-09-19T09:47:10;5.60;;;2.60;;
54368;SDS011;40266;52.434;17.056;2023-09-19T09:50:10;6.80;;;2.50;;
54368;SDS011;40266;52.434;17.056;2023-09-19T09:53:00;5.50;;;2.30;;
54368;SDS011;40266;52.434;17.056;2023-09-19T09:58:51;5.60;;;2.40;;
54368;SDS011;40266;52.434;17.056;2023-09-19T10:01:48;8.30;;;2.60;;
54368;SDS011;40266;52.434;17.056;2023-09-19T10:04:31;8.60;;;2.70;;
54368;SDS011;40266;52.434;17.056;2023-09-19T10:07:29;15.20;;;3.30;;
54368;SDS011;40266;52.434;17.056;2023-09-19T10:10:40;8.80;;;2.70;;
54368;SDS011;40266;52.434;17.056;2023-09-19T10:13:23;13.50;;;3.00;;
54368;SDS011;40266;52.434;17.056;2023-09-19T10:16:11;7.80;;;2.50;;
54368;SDS011;40266;52.434;17.056;2023-09-19T10:18:58;10.20;;;2.50;;
54368;SDS011;40266;52.434;17.056;2023-09-19T10:21:44;7.90;;;2.70;;
54368;SDS011;40266;52.434;17.056;2023-09-19T10:24:28;5.40;;;2.80;;
54368;SDS011;40266;52.434;17.056;2023-09-19T10:27:13;9.80;;;2.50;;
54368;SDS011;40266;52.434;17.056;2023-09-19T10:30:04;9.30;;;2.50;;
54368;SDS011;40266;52.434;17.056;2023-09-19T10:32:57;5.70;;;2.60;;
54368;SDS011;40266;52.434;17.056;2023-09-19T10:35:43;6.20;;;2.20;;
54368;SDS011;40266;52.434;17.056;2023-09-19T10:38:28;5.50;;;2.60;;
54368;SDS011;40266;52.434;17.056;2023-09-19T10:41:12;6.10;;;2.10;;
54368;SDS011;40266;52.434;17.056;2023-09-19T10:43:58;8.40;;;2.40;;
54368;SDS011;40266;52.434;17.056;2023-09-19T10:46:42;5.10;;;2.60;;
54368;SDS011;40266;52.434;17.056;2023-09-19T10:49:25;6.60;;;2.10;;
54368;SDS011;40266;52.434;17.056;2023-09-19T10:52:09;7.40;;;3.10;;
54368;SDS011;40266;52.434;17.056;2023-09-19T10:54:57;9.40;;;3.10;;
54368;SDS011;40266;52.434;17.056;2023-09-19T10:57:45;4.60;;;2.30;;
54368;SDS011;40266;52.434;17.056;2023-09-19T11:00:30;6.40;;;2.30;;
54368;SDS011;40266;52.434;17.056;2023-09-19T11:03:18;8.40;;;2.50;;
54368;SDS011;40266;52.434;17.056;2023-09-19T11:06:09;5.20;;;2.00;;
54368;SDS011;40266;52.434;17.056;2023-09-19T11:08:53;7.30;;;2.80;;
54368;SDS011;40266;52.434;17.056;2023-09-19T11:11:50;4.60;;;2.20;;
54368;SDS011;40266;52.434;17.056;2023-09-19T11:14:39;5.50;;;1.80;;
54368;SDS011;40266;52.434;17.056;2023-09-19T11:17:30;11.00;;;2.70;;
54368;SDS011;40266;52.434;17.056;2023-09-19T11:20:16;12.80;;;2.70;;
54368;SDS011;40266;52.434;17.056;2023-09-19T11:25:49;7.40;;;2.70;;
54368;SDS011;40266;52.434;17.056;2023-09-19T11:28:34;9.90;;;2.90;;
54368;SDS011;40266;52.434;17.056;2023-09-19T11:42:56;5.70;;;2.70;;
54368;SDS011;40266;52.434;17.056;2023-09-19T11:48:29;7.30;;;2.30;;
54368;SDS011;40266;52.434;17.056;2023-09-19T11:51:13;6.40;;;2.50;;
54368;SDS011;40266;52.434;17.056;2023-09-19T11:54:02;8.30;;;2.80;;
54368;SDS011;40266;52.434;17.056;2023-09-19T11:56:46;5.70;;;2.80;;
54368;SDS011;40266;52.434;17.056;2023-09-19T11:59:33;5.30;;;2.80;;
54368;SDS011;40266;52.434;17.056;2023-09-19T12:02:19;3.80;;;2.40;;
54368;SDS011;40266;52.434;17.056;2023-09-19T12:05:29;5.40;;;2.70;;
54368;SDS011;40266;52.434;17.056;2023-09-19T12:08:16;4.90;;;2.40;;
54368;SDS011;40266;52.434;17.056;2023-09-19T12:11:03;9.90;;;2.60;;
54368;SDS011;40266;52.434;17.056;2023-09-19T12:13:47;8.40;;;2.60;;
54368;SDS011;40266;52.434;17.056;2023-09-19T12:16:31;6.60;;;2.80;;
54368;SDS011;40266;52.434;17.056;2023-09-19T12:19:18;4.70;;;2.20;;
54368;SDS011;40266;52.434;17.056;2023-09-19T12:22:04;8.20;;;2.50;;
54368;SDS011;40266;52.434;17.056;2023-09-19T12:24:48;3.90;;;2.70;;
54368;SDS011;40266;52.434;17.056;2023-09-19T12:27:41;11.00;;;3.10;;
54368;SDS011;40266;52.434;17.056;2023-09-19T12:30:36;4.70;;;3.00;;
54368;SDS011;40266;52.434;17.056;2023-09-19T12:33:19;6.70;;;2.20;;
54368;SDS011;40266;52.434;17.056;2023-09-19T12:36:22;6.00;;;2.60;;
54368;SDS011;40266;52.434;17.056;2023-09-19T12:39:22;6.10;;;2.70;;
54368;SDS011;40266;52.434;17.056;2023-09-19T12:42:10;7.50;;;2.60;;
54368;SDS011;40266;52.434;17.056;2023-09-19T12:44:57;8.40;;;2.40;;
54368;SDS011;40266;52.434;17.056;2023-09-19T12:51:06;3.90;;;2.50;;
54368;SDS011;40266;52.434;17.056;2023-09-19T12:53:57;25.30;;;3.50;;
54368;SDS011;40266;52.434;17.056;2023-09-19T12:56:41;7.60;;;2.70;;
54368;SDS011;40266;52.434;17.056;2023-09-19T12:59:31;4.30;;;2.40;;
54368;SDS011;40266;52.434;17.056;2023-09-19T13:02:15;6.50;;;2.60;;
54368;SDS011;40266;52.434;17.056;2023-09-19T13:05:01;5.40;;;2.90;;
54368;SDS011;40266;52.434;17.056;2023-09-19T13:07:47;6.20;;;2.40;;
54368;SDS011;40266;52.434;17.056;2023-09-19T13:10:31;6.30;;;2.60;;
54368;SDS011;40266;52.434;17.056;2023-09-19T13:13:23;4.30;;;3.00;;
54368;SDS011;40266;52.434;17.056;2023-09-19T13:16:10;6.60;;;2.80;;
54368;SDS011;40266;52.434;17.056;2023-09-19T13:18:57;6.70;;;2.90;;
54368;SDS011;40266;52.434;17.056;2023-09-19T13:21:40;7.40;;;2.70;;
54368;SDS011;40266;52.434;17.056;2023-09-19T13:24:32;6.90;;;2.40;;
54368;SDS011;40266;52.434;17.056;2023-09-19T13:27:17;5.30;;;2.50;;
54368;SDS011;40266;52.434;17.056;2023-09-19T13:30:00;7.50;;;2.60;;
54368;SDS011;40266;52.434;17.056;2023-09-19T13:32:43;4.50;;;2.40;;
54368;SDS011;40266;52.434;17.056;2023-09-19T13:35:27;8.60;;;2.70;;
54368;SDS011;40266;52.434;17.056;2023-09-19T13:38:10;3.00;;;2.00;;
54368;SDS011;40266;52.434;17.056;2023-09-19T13:40:54;6.20;;;2.80;;
54368;SDS011;40266;52.434;17.056;2023-09-19T13:43:38;7.40;;;2.70;;
54368;SDS011;40266;52.434;17.056;2023-09-19T13:46:22;11.00;;;3.10;;
54368;SDS011;40266;52.434;17.056;2023-09-19T13:49:09;5.50;;;3.10;;
54368;SDS011;40266;52.434;17.056;2023-09-19T13:51:52;2.80;;;2.40;;
54368;SDS011;40266;52.434;17.056;2023-09-19T13:54:37;5.60;;;2.70;;
54368;SDS011;40266;52.434;17.056;2023-09-19T13:57:20;7.70;;;2.80;;
54368;SDS011;40266;52.434;17.056;2023-09-19T14:00:03;6.20;;;2.70;;
54368;SDS011;40266;52.434;17.056;2023-09-19T14:02:53;7.30;;;2.50;;
54368;SDS011;40266;52.434;17.056;2023-09-19T14:05:36;7.20;;;2.60;;
54368;SDS011;40266;52.434;17.056;2023-09-19T14:08:20;6.90;;;2.70;;
54368;SDS011;40266;52.434;17.056;2023-09-19T14:11:06;6.10;;;2.50;;
54368;SDS011;40266;52.434;17.056;2023-09-19T14:13:49;8.00;;;2.60;;
54368;SDS011;40266;52.434;17.056;2023-09-19T14:16:37;4.80;;;2.90;;
54368;SDS011;40266;52.434;17.056;2023-09-19T14:19:20;2.90;;;2.40;;
54368;SDS011;40266;52.434;17.056;2023-09-19T14:22:03;5.30;;;2.50;;
54368;SDS011;40266;52.434;17.056;2023-09-19T14:24:50;5.40;;;2.80;;
54368;SDS011;40266;52.434;17.056;2023-09-19T14:27:34;3.80;;;2.10;;
54368;SDS011;40266;52.434;17.056;2023-09-19T14:30:17;9.30;;;3.10;;
54368;SDS011;40266;52.434;17.056;2023-09-19T14:33:00;4.20;;;2.60;;
54368;SDS011;40266;52.434;17.056;2023-09-19T14:35:43;4.10;;;2.50;;
54368;SDS011;40266;52.434;17.056;2023-09-19T14:38:26;8.10;;;3.00;;
54368;SDS011;40266;52.434;17.056;2023-09-19T14:41:09;4.20;;;2.90;;
54368;SDS011;40266;52.434;17.056;2023-09-19T14:43:53;7.70;;;2.90;;
54368;SDS011;40266;52.434;17.056;2023-09-19T14:46:36;4.20;;;3.10;;
54368;SDS011;40266;52.434;17.056;2023-09-19T14:49:19;7.70;;;3.00;;
54368;SDS011;40266;52.434;17.056;2023-09-19T14:52:02;4.20;;;2.80;;
54368;SDS011;40266;52.434;17.056;2023-09-19T14:54:48;7.00;;;3.20;;
54368;SDS011;40266;52.434;17.056;2023-09-19T14:57:30;5.40;;;3.10;;
54368;SDS011;40266;52.434;17.056;2023-09-19T15:00:13;7.90;;;3.50;;
54368;SDS011;40266;52.434;17.056;2023-09-19T15:02:57;5.50;;;3.10;;
54368;SDS011;40266;52.434;17.056;2023-09-19T15:05:40;7.30;;;3.10;;
54368;SDS011;40266;52.434;17.056;2023-09-19T15:08:23;10.30;;;3.40;;
54368;SDS011;40266;52.434;17.056;2023-09-19T15:11:08;4.70;;;3.10;;
54368;SDS011;40266;52.434;17.056;2023-09-19T15:13:52;6.50;;;3.40;;
54368;SDS011;40266;52.434;17.056;2023-09-19T15:16:39;9.00;;;3.00;;
54368;SDS011;40266;52.434;17.056;2023-09-19T15:19:24;6.70;;;3.40;;
54368;SDS011;40266;52.434;17.056;2023-09-19T15:22:07;4.70;;;3.00;;
54368;SDS011;40266;52.434;17.056;2023-09-19T15:24:50;5.80;;;2.90;;
54368;SDS011;40266;52.434;17.056;2023-09-19T15:27:34;7.10;;;3.50;;
54368;SDS011;40266;52.434;17.056;2023-09-19T15:30:19;10.40;;;5.20;;
54368;SDS011;40266;52.434;17.056;2023-09-19T15:33:02;6.00;;;3.40;;
54368;SDS011;40266;52.434;17.056;2023-09-19T15:35:45;12.00;;;3.60;;
54368;SDS011;40266;52.434;17.056;2023-09-19T15:38:28;10.10;;;3.50;;
54368;SDS011;40266;52.434;17.056;2023-09-19T15:41:14;10.90;;;3.20;;
54368;SDS011;40266;52.434;17.056;2023-09-19T15:43:57;6.30;;;2.90;;
54368;SDS011;40266;52.434;17.056;2023-09-19T15:46:44;6.20;;;3.60;;
54368;SDS011;40266;52.434;17.056;2023-09-19T15:49:28;8.90;;;3.70;;
54368;SDS011;40266;52.434;17.056;2023-09-19T15:52:11;7.90;;;3.50;;
54368;SDS011;40266;52.434;17.056;2023-09-19T15:54:54;5.10;;;2.60;;
54368;SDS011;40266;52.434;17.056;2023-09-19T15:57:37;11.30;;;3.60;;
54368;SDS011;40266;52.434;17.056;2023-09-19T16:00:20;10.00;;;2.90;;
54368;SDS011;40266;52.434;17.056;2023-09-19T16:03:04;4.90;;;2.80;;
54368;SDS011;40266;52.434;17.056;2023-09-19T16:05:47;7.50;;;3.00;;
54368;SDS011;40266;52.434;17.056;2023-09-19T16:08:30;10.60;;;3.40;;
54368;SDS011;40266;52.434;17.056;2023-09-19T16:11:14;12.70;;;3.20;;
54368;SDS011;40266;52.434;17.056;2023-09-19T16:13:58;6.80;;;3.00;;
54368;SDS011;40266;52.434;17.056;2023-09-19T16:16:40;9.50;;;3.20;;
54368;SDS011;40266;52.434;17.056;2023-09-19T16:19:23;6.10;;;2.70;;
54368;SDS011;40266;52.434;17.056;2023-09-19T16:22:06;5.50;;;2.70;;
54368;SDS011;40266;52.434;17.056;2023-09-19T16:24:49;16.00;;;3.50;;
54368;SDS011;40266;52.434;17.056;2023-09-19T16:27:32;6.40;;;3.30;;
54368;SDS011;40266;52.434;17.056;2023-09-19T16:30:15;22.60;;;4.30;;
54368;SDS011;40266;52.434;17.056;2023-09-19T16:33:01;9.10;;;3.20;;
54368;SDS011;40266;52.434;17.056;2023-09-19T16:35:44;22.60;;;4.60;;
54368;SDS011;40266;52.434;17.056;2023-09-19T16:38:27;8.30;;;2.60;;
54368;SDS011;40266;52.434;17.056;2023-09-19T16:41:10;8.70;;;2.20;;
54368;SDS011;40266;52.434;17.056;2023-09-19T16:43:56;5.90;;;3.20;;
54368;SDS011;40266;52.434;17.056;2023-09-19T16:46:40;9.10;;;3.20;;
54368;SDS011;40266;52.434;17.056;2023-09-19T16:49:24;8.90;;;3.20;;
54368;SDS011;40266;52.434;17.056;2023-09-19T16:52:07;7.50;;;3.40;;
54368;SDS011;40266;52.434;17.056;2023-09-19T16:54:51;12.20;;;3.30;;
54368;SDS011;40266;52.434;17.056;2023-09-19T16:57:34;13.00;;;3.20;;
54368;SDS011;40266;52.434;17.056;2023-09-19T17:00:17;6.10;;;2.90;;
54368;SDS011;40266;52.434;17.056;2023-09-19T17:03:01;8.00;;;2.90;;
54368;SDS011;40266;52.434;17.056;2023-09-19T17:05:46;6.90;;;2.70;;